Time;durP1;ratioP1;P1;durP2;ratioP2;P2;SDS_P1;SDS_P2;PMS_P1;PMS_P2;Temp;Humidity;BMP_temperature;BMP_pressure;BME280_temperature;BME280_humidity;BME280_pressure;Samples;Min_cycle;Max_cycle;Signal;HPM_P1;HPM_P2
2023/04/14 00:02:41;;;;;;;9.38;2.70;;;5.70;99.90;;;;;;12531886;28;20025;-81
2023/04/14 00:08:43;;;;;;;8.13;3.33;;;5.70;99.90;;;;;;12516388;28;20484;-80
2023/04/14 00:14:45;;;;;;;9.45;2.80;;;5.40;99.90;;;;;;12511715;28;20041;-80
2023/04/14 00:20:47;;;;;;;8.32;2.95;;;5.20;99.90;;;;;;12515151;28;20530;-80
2023/04/14 00:26:49;;;;;;;8.98;2.90;;;4.90;99.90;;;;;;12466388;28;20073;-80
2023/04/14 00:32:51;;;;;;;8.63;3.47;;;4.90;99.90;;;;;;12483967;28;20081;-80
2023/04/14 00:38:53;;;;;;;8.55;2.97;;;5.20;99.90;;;;;;12462797;28;20042;-81
2023/04/14 00:44:55;;;;;;;5.75;2.80;;;5.10;99.90;;;;;;12472876;28;20052;-81
2023/04/14 00:50:57;;;;;;;7.78;2.50;;;5.00;99.90;;;;;;12478824;28;20049;-80
2023/04/14 00:56:59;;;;;;;5.75;2.33;;;5.20;99.90;;;;;;12475105;28;20045;-81
2023/04/14 01:03:01;;;;;;;7.75;2.90;;;5.20;99.90;;;;;;12484814;28;20037;-81
2023/04/14 01:09:04;;;;;;;5.00;2.50;;;4.80;99.90;;;;;;12488639;28;20537;-81
2023/04/14 01:15:49;;;;;;;9.65;2.28;;;4.80;99.90;;;;;;12504522;28;20046;-81
2023/04/14 01:22:00;;;;;;;10.32;2.55;;;4.80;99.90;;;;;;12473990;28;20080;-80
2023/04/14 01:28:35;;;;;;;10.18;3.10;;;4.70;99.90;;;;;;12492863;28;20135;-80
2023/04/14 01:35:02;;;;;;;7.72;2.80;;;4.80;99.90;;;;;;12477503;28;20041;-80
2023/04/14 01:41:07;;;;;;;10.48;3.42;;;4.70;99.90;;;;;;12508286;28;20053;-80
2023/04/14 01:47:14;;;;;;;10.85;3.10;;;4.90;99.90;;;;;;12486798;28;20073;-79
2023/04/14 01:53:18;;;;;;;11.90;3.85;;;4.80;99.90;;;;;;12496633;28;20108;-81
2023/04/14 01:59:21;;;;;;;7.88;3.00;;;4.60;99.90;;;;;;12506788;28;20049;-80
2023/04/14 02:05:24;;;;;;;7.28;3.63;;;4.70;99.90;;;;;;12507923;28;20056;-81
2023/04/14 02:11:28;;;;;;;10.95;5.07;;;4.10;99.90;;;;;;12487245;28;20073;-81
2023/04/14 02:17:31;;;;;;;12.70;6.07;;;4.20;99.90;;;;;;12475339;28;20100;-80
2023/04/14 02:23:33;;;;;;;16.85;8.50;;;4.20;99.90;;;;;;12480796;28;20588;-80
2023/04/14 02:29:39;;;;;;;12.32;6.90;;;4.30;99.90;;;;;;12506567;28;20060;-80
2023/04/14 02:35:47;;;;;;;12.98;7.10;;;4.20;99.90;;;;;;12485104;28;21153;-80
2023/04/14 02:41:57;;;;;;;10.38;5.63;;;4.40;99.90;;;;;;12461133;28;20418;-80
2023/04/14 02:48:05;;;;;;;7.80;4.30;;;4.20;99.90;;;;;;12485633;28;20069;-80
2023/04/14 02:54:07;;;;;;;12.02;5.10;;;4.00;99.90;;;;;;12480708;28;20045;-81
2023/04/14 03:00:11;;;;;;;10.65;5.90;;;4.00;99.90;;;;;;12474402;28;20042;-80
2023/04/14 03:06:15;;;;;;;11.02;5.13;;;3.80;99.90;;;;;;12478986;28;20546;-80
2023/04/14 03:12:19;;;;;;;10.32;5.10;;;3.80;99.90;;;;;;12489413;28;20120;-81
2023/04/14 03:18:24;;;;;;;10.90;4.78;;;3.70;99.90;;;;;;12519475;28;20050;-81
2023/04/14 03:24:29;;;;;;;11.38;5.30;;;3.30;99.90;;;;;;12505256;28;20053;-81
2023/04/14 03:30:33;;;;;;;11.27;5.43;;;3.20;99.90;;;;;;12496714;28;20042;-81
2023/04/14 03:36:36;;;;;;;14.37;5.80;;;3.30;99.90;;;;;;12504162;28;20397;-80
2023/04/14 03:42:43;;;;;;;11.98;5.85;;;3.40;99.90;;;;;;12511601;28;20038;-80
2023/04/14 03:48:47;;;;;;;12.60;5.88;;;3.30;99.90;;;;;;12490724;28;20117;-80
2023/04/14 03:54:52;;;;;;;25.55;7.68;;;3.60;99.90;;;;;;12510712;28;20049;-80
2023/04/14 04:00:54;;;;;;;;;;;3.60;99.90;;;;;;12502703;28;20123;-79
2023/04/14 04:06:57;;;;;;;12.05;5.15;;;3.70;99.90;;;;;;12488655;28;19925;-80
2023/04/14 04:13:07;;;;;;;9.07;4.72;;;3.70;99.90;;;;;;12506363;28;20037;-80
2023/04/14 04:19:12;;;;;;;10.15;4.80;;;3.60;99.90;;;;;;12520090;28;20332;-80
2023/04/14 04:25:15;;;;;;;11.82;4.63;;;3.50;99.90;;;;;;12490766;28;20050;-81
2023/04/14 04:31:19;;;;;;;8.38;4.57;;;3.40;99.90;;;;;;12486316;28;20064;-81
2023/04/14 04:37:21;;;;;;;7.30;4.50;;;3.50;99.90;;;;;;12470272;28;20046;-80
2023/04/14 04:43:23;;;;;;;10.77;5.43;;;3.60;99.90;;;;;;12482230;28;20053;-81
2023/04/14 04:49:26;;;;;;;8.93;5.00;;;3.80;99.90;;;;;;12485557;28;20064;-80
2023/04/14 04:55:28;;;;;;;9.40;4.55;;;4.00;99.90;;;;;;12468172;28;20141;-80
2023/04/14 05:01:30;;;;;;;10.40;4.75;;;3.90;99.90;;;;;;12465033;28;20104;-80
2023/04/14 05:07:32;;;;;;;8.50;4.82;;;4.20;99.90;;;;;;12472324;28;20104;-80
2023/04/14 05:13:34;;;;;;;11.77;5.10;;;3.90;99.90;;;;;;12481937;28;20425;-80
2023/04/14 05:19:37;;;;;;;12.80;5.40;;;4.70;99.90;;;;;;12474790;28;20046;-81
2023/04/14 05:25:39;;;;;;;6.57;4.22;;;6.50;99.90;;;;;;12481422;28;20056;-80
2023/04/14 05:31:41;;;;;;;8.57;5.25;;;8.20;99.90;;;;;;12466834;28;20057;-80
2023/04/14 05:37:43;;;;;;;10.23;5.30;;;8.10;99.90;;;;;;12512036;28;20045;-80
2023/04/14 05:43:45;;;;;;;9.40;4.97;;;8.30;99.90;;;;;;12508309;28;20029;-80
2023/04/14 05:49:47;;;;;;;7.60;4.38;;;8.00;99.90;;;;;;12525450;28;20073;-80
2023/04/14 05:55:51;;;;;;;12.07;4.80;;;7.90;99.90;;;;;;12529596;28;20049;-80
2023/04/14 06:01:53;;;;;;;10.85;4.90;;;7.70;99.90;;;;;;12509685;28;20050;-81
2023/04/14 06:07:55;;;;;;;10.02;4.75;;;7.60;99.90;;;;;;12521414;28;20042;-81
2023/04/14 06:14:00;;;;;;;13.73;6.50;;;7.90;99.90;;;;;;12514371;28;20053;-80
2023/04/14 06:20:03;;;;;;;10.45;6.32;;;8.00;99.90;;;;;;12521793;28;20055;-80
2023/04/14 06:26:05;;;;;;;9.40;6.18;;;8.10;99.90;;;;;;12457417;28;20042;-79
2023/04/14 06:32:07;;;;;;;13.57;6.13;;;8.00;99.90;;;;;;12488836;28;20053;-80
2023/04/14 06:38:09;;;;;;;10.23;5.97;;;7.70;99.90;;;;;;12494208;28;20061;-80
2023/04/14 06:44:11;;;;;;;11.98;7.25;;;7.50;99.90;;;;;;12520807;28;20517;-81
2023/04/14 06:50:13;;;;;;;12.65;6.45;;;7.40;99.90;;;;;;12496778;28;20045;-81
2023/04/14 06:56:15;;;;;;;11.27;6.00;;;7.50;99.90;;;;;;12496788;28;20045;-80
2023/04/14 07:02:17;;;;;;;8.75;5.60;;;7.60;99.90;;;;;;12511572;28;20050;-80
2023/04/14 07:08:20;;;;;;;11.25;5.68;;;7.60;99.90;;;;;;12490796;28;20126;-80
2023/04/14 07:14:23;;;;;;;13.68;6.13;;;8.10;99.90;;;;;;12495764;28;20050;-81
2023/04/14 07:20:25;;;;;;;10.82;5.80;;;8.10;99.90;;;;;;12478126;28;20054;-80
2023/04/14 07:26:27;;;;;;;11.20;5.90;;;8.30;99.90;;;;;;12479621;28;20085;-80
2023/04/14 07:32:29;;;;;;;13.18;5.63;;;8.50;99.90;;;;;;12473220;28;20080;-81
2023/04/14 07:38:31;;;;;;;8.77;4.63;;;8.80;99.90;;;;;;12482854;28;20109;-80
2023/04/14 07:44:33;;;;;;;11.77;5.35;;;8.80;99.90;;;;;;12501303;28;20053;-80
2023/04/14 07:50:36;;;;;;;10.15;4.70;;;9.10;99.90;;;;;;12511875;28;20049;-80
2023/04/14 07:56:38;;;;;;;12.38;4.78;;;9.40;99.90;;;;;;12512297;28;20060;-80
2023/04/14 08:02:40;;;;;;;8.77;5.20;;;9.60;99.90;;;;;;12523117;28;20045;-80
2023/04/14 08:08:42;;;;;;;9.63;4.80;;;9.70;99.90;;;;;;12485971;28;20066;-80
2023/04/14 08:14:46;;;;;;;10.75;4.95;;;10.00;99.90;;;;;;12492900;28;20541;-80
2023/04/14 08:20:48;;;;;;;15.05;5.45;;;9.90;99.90;;;;;;12489268;28;20125;-81
2023/04/14 08:26:50;;;;;;;10.05;5.07;;;10.10;99.90;;;;;;12493408;28;20037;-81
2023/04/14 08:32:52;;;;;;;17.85;5.55;;;10.40;99.90;;;;;;12496557;28;20055;-81
2023/04/14 08:39:00;;;;;;;10.02;4.80;;;10.60;99.90;;;;;;12494468;28;20052;-80
2023/04/14 08:45:03;;;;;;;10.93;5.00;;;10.80;99.90;;;;;;12488819;28;20473;-80
2023/04/14 08:51:23;;;;;;;7.90;3.92;;;11.10;99.90;;;;;;12473284;28;20038;-80
2023/04/14 08:57:25;;;;;;;13.07;4.75;;;11.40;99.90;;;;;;12475682;28;20050;-81
2023/04/14 09:03:28;;;;;;;10.45;4.65;;;11.60;99.90;;;;;;12477140;28;20100;-81
2023/04/14 09:09:30;;;;;;;9.75;4.05;;;11.90;99.90;;;;;;12487994;28;20496;-81
2023/04/14 09:15:33;;;;;;;12.35;4.38;;;12.00;99.90;;;;;;12503936;28;20045;-81
2023/04/14 09:21:36;;;;;;;5.80;3.17;;;12.40;99.90;;;;;;12480502;28;20612;-80
2023/04/14 09:27:55;;;;;;;10.10;4.28;;;12.60;99.90;;;;;;12492236;28;20039;-81
2023/04/14 09:33:57;;;;;;;6.78;3.00;;;12.30;99.90;;;;;;12491633;28;20719;-81
2023/04/14 09:39:59;;;;;;;7.40;2.28;;;12.70;99.90;;;;;;12540233;28;20045;-80
2023/04/14 09:46:07;;;;;;;6.32;2.35;;;11.90;99.90;;;;;;12524536;28;20136;-81
2023/04/14 09:52:09;;;;;;;8.63;2.80;;;11.90;99.90;;;;;;12542489;28;20072;-80
2023/04/14 09:58:11;;;;;;;7.45;2.63;;;11.70;99.90;;;;;;12535658;28;20045;-81
2023/04/14 10:04:25;;;;;;;7.32;2.90;;;12.60;99.90;;;;;;12523023;28;20041;-80
2023/04/14 10:10:28;;;;;;;10.47;2.90;;;13.30;99.90;;;;;;12512632;28;20041;-82
2023/04/14 10:16:30;;;;;;;6.53;2.40;;;13.00;99.90;;;;;;12533246;28;20337;-80
2023/04/14 10:22:37;;;;;;;5.47;1.40;;;13.30;99.90;;;;;;12501787;28;20026;-81
2023/04/14 10:28:47;;;;;;;5.78;2.08;;;13.80;99.90;;;;;;12515358;28;20041;-80
2023/04/14 10:35:05;;;;;;;7.07;1.75;;;14.10;99.90;;;;;;12486350;28;20042;-80
2023/04/14 10:41:07;;;;;;;5.47;1.73;;;14.80;99.90;;;;;;12479057;28;20057;-81
2023/04/14 10:47:09;;;;;;;6.95;2.30;;;15.10;99.90;;;;;;12520553;28;20053;-81
2023/04/14 10:53:12;;;;;;;7.78;2.30;;;14.60;99.90;;;;;;12484449;28;20049;-81
2023/04/14 10:59:16;;;;;;;5.82;1.80;;;15.20;99.90;;;;;;12499935;28;20049;-81
2023/04/14 11:05:19;;;;;;;;;;;15.30;99.90;;;;;;12488263;28;20046;-81
2023/04/14 11:11:27;;;;;;;5.32;2.13;;;14.70;99.90;;;;;;12501802;28;19971;-81
2023/04/14 11:17:31;;;;;;;3.78;1.60;;;15.20;99.90;;;;;;12511184;28;20057;-81
2023/04/14 11:23:35;;;;;;;4.68;1.73;;;14.20;99.90;;;;;;12484469;28;20572;-81
2023/04/14 11:29:37;;;;;;;4.35;1.80;;;14.00;99.90;;;;;;12493849;28;20045;-82
2023/04/14 11:35:41;;;;;;;6.00;2.00;;;14.10;99.90;;;;;;12515658;28;20105;-82
2023/04/14 11:41:47;;;;;;;4.82;1.60;;;14.90;99.90;;;;;;12508631;28;20123;-81
2023/04/14 11:47:59;;;;;;;3.05;1.52;;;15.20;99.90;;;;;;12493697;28;20054;-81
2023/04/14 11:54:02;;;;;;;3.20;1.50;;;14.60;99.90;;;;;;12510043;28;20124;-81
2023/04/14 12:00:05;;;;;;;4.25;1.30;;;14.40;99.90;;;;;;12504568;28;20048;-81
2023/04/14 12:06:09;;;;;;;5.40;1.63;;;15.10;99.90;;;;;;12490270;28;20080;-82
2023/04/14 12:12:12;;;;;;;5.38;1.42;;;16.20;99.90;;;;;;12482747;28;20045;-82
2023/04/14 12:18:17;;;;;;;7.93;1.42;;;16.00;99.90;;;;;;12506677;28;20038;-81
2023/04/14 12:24:20;;;;;;;5.68;1.60;;;14.70;99.90;;;;;;12521705;28;20045;-81
2023/04/14 12:30:24;;;;;;;4.65;1.40;;;14.40;99.90;;;;;;12508931;28;20060;-83
2023/04/14 12:36:27;;;;;;;6.43;1.15;;;14.40;99.90;;;;;;12506933;28;20077;-81
2023/04/14 12:42:55;;;;;;;5.90;1.30;;;15.50;99.90;;;;;;12509028;28;20050;-82
2023/04/14 12:49:00;;;;;;;6.93;1.38;;;16.40;99.90;;;;;;12504681;28;20041;-82
2023/04/14 12:55:21;;;;;;;3.55;1.23;;;16.50;99.90;;;;;;12535538;28;20095;-82
2023/04/14 13:01:23;;;;;;;5.72;1.20;;;16.40;99.90;;;;;;12524478;28;20037;-83
2023/04/14 13:07:26;;;;;;;4.07;1.15;;;17.30;99.90;;;;;;12531663;28;20053;-81
2023/04/14 13:13:28;;;;;;;6.03;1.35;;;17.50;99.90;;;;;;12515803;28;20101;-82
2023/04/14 13:19:30;;;;;;;3.85;1.48;;;17.90;99.90;;;;;;12519919;28;20083;-82
2023/04/14 13:25:32;;;;;;;5.70;1.25;;;16.30;99.90;;;;;;12541144;28;20045;-82
2023/04/14 13:31:34;;;;;;;5.00;1.02;;;16.30;99.90;;;;;;12534933;28;20072;-83
2023/04/14 13:37:37;;;;;;;3.05;1.10;;;16.70;99.90;;;;;;12539564;28;20409;-83
2023/04/14 13:43:43;;;;;;;4.45;1.20;;;16.80;99.90;;;;;;12522093;28;20058;-82
2023/04/14 13:49:45;;;;;;;3.50;1.20;;;16.70;99.90;;;;;;12528579;28;20056;-82
2023/04/14 13:55:49;;;;;;;3.13;1.08;;;16.30;99.90;;;;;;12532476;28;20049;-83
2023/04/14 14:01:52;;;;;;;4.05;1.30;;;16.50;99.90;;;;;;12545160;28;20064;-83
2023/04/14 14:07:55;;;;;;;5.10;1.42;;;15.50;99.90;;;;;;12536206;28;20101;-82
2023/04/14 14:13:57;;;;;;;4.13;1.40;;;15.10;99.90;;;;;;12536749;28;20072;-82
2023/04/14 14:19:59;;;;;;;2.28;1.33;;;14.80;99.90;;;;;;12538258;28;20037;-82
2023/04/14 14:26:01;;;;;;;4.35;1.52;;;14.70;99.90;;;;;;12523084;28;20030;-82
2023/04/14 14:32:04;;;;;;;7.07;1.65;;;14.90;99.90;;;;;;12522024;28;20046;-83
2023/04/14 14:38:06;;;;;;;5.93;1.55;;;15.00;99.90;;;;;;12527036;28;20064;-82
2023/04/14 14:44:08;;;;;;;3.92;1.45;;;15.40;99.90;;;;;;12536392;28;20042;-82
2023/04/14 14:50:10;;;;;;;3.45;1.27;;;16.30;99.90;;;;;;12532907;28;20057;-82
2023/04/14 14:56:12;;;;;;;3.03;1.20;;;17.10;99.90;;;;;;12546454;28;20065;-82
2023/04/14 15:02:14;;;;;;;3.60;1.40;;;16.70;99.90;;;;;;12522833;28;20083;-83
2023/04/14 15:08:16;;;;;;;6.40;1.70;;;15.90;99.90;;;;;;12507957;28;20085;-82
2023/04/14 15:14:19;;;;;;;4.53;1.50;;;16.00;99.90;;;;;;12513631;28;20041;-82
2023/04/14 15:20:21;;;;;;;2.60;1.30;;;16.50;99.90;;;;;;12523792;28;20042;-81
2023/04/14 15:26:23;;;;;;;2.38;1.27;;;15.20;99.90;;;;;;12527066;28;20077;-82
2023/04/14 15:38:35;;;;;;;6.80;1.95;;;15.20;99.90;;;;;;12401138;28;20050;-41
2023/04/14 15:44:37;;;;;;;2.83;1.10;;;15.60;99.90;;;;;;12393927;28;20074;-40
2023/04/14 15:50:40;;;;;;;2.83;1.10;;;15.40;99.90;;;;;;12375719;28;20054;-40
2023/04/14 15:56:45;;;;;;;2.80;1.23;;;15.60;99.90;;;;;;12382214;28;20050;-40
2023/04/14 16:02:47;;;;;;;3.58;1.17;;;15.50;99.90;;;;;;12386761;28;20108;-40
2023/04/14 16:08:49;;;;;;;3.80;1.40;;;15.20;99.90;;;;;;12391816;28;20487;-41
2023/04/14 16:14:53;;;;;;;4.32;1.25;;;14.10;99.90;;;;;;12403365;28;20050;-42
2023/04/14 16:20:55;;;;;;;7.65;1.40;;;13.80;99.90;;;;;;12386988;28;20124;-41
2023/04/14 16:26:56;;;;;;;3.88;1.20;;;13.60;99.90;;;;;;12361693;28;20092;-41
2023/04/14 16:32:58;;;;;;;6.43;1.60;;;14.00;99.90;;;;;;12403607;28;20073;-41
2023/04/14 16:39:00;;;;;;;3.53;1.67;;;14.00;99.90;;;;;;12362788;28;20423;-41
2023/04/14 16:45:02;;;;;;;3.92;1.98;;;14.00;99.90;;;;;;12392008;28;20047;-41
2023/04/14 16:51:07;;;;;;;9.60;2.42;;;13.50;99.90;;;;;;12359958;28;20046;-40
2023/04/14 16:57:09;;;;;;;4.50;2.13;;;13.40;99.90;;;;;;12369144;28;20053;-40
2023/04/14 17:03:11;;;;;;;4.45;2.03;;;13.20;99.90;;;;;;12360932;28;20479;-40
2023/04/14 17:09:13;;;;;;;7.20;2.30;;;13.00;99.90;;;;;;12411117;28;20104;-40
2023/04/14 17:15:16;;;;;;;5.20;2.15;;;12.80;99.90;;;;;;12378490;28;20050;-40
2023/04/14 17:21:18;;;;;;;4.43;1.85;;;12.70;99.90;;;;;;12376385;28;20053;-41
2023/04/14 17:27:20;;;;;;;4.03;1.80;;;12.50;99.90;;;;;;12378788;28;20400;-40
2023/04/14 17:33:25;;;;;;;3.28;1.83;;;12.00;99.90;;;;;;12395895;28;20099;-40
2023/04/14 17:39:27;;;;;;;5.03;2.22;;;11.90;99.90;;;;;;12385500;28;20559;-39
2023/04/14 17:45:30;;;;;;;6.78;2.25;;;11.80;99.90;;;;;;12391982;28;20042;-40
2023/04/14 17:51:33;;;;;;;5.72;2.28;;;11.70;99.90;;;;;;12395224;28;20051;-40
2023/04/14 17:57:35;;;;;;;3.72;2.08;;;11.60;99.90;;;;;;12382714;28;20854;-40
2023/04/14 18:03:37;;;;;;;5.80;2.47;;;11.50;99.90;;;;;;12385359;28;20388;-40
2023/04/14 18:09:39;;;;;;;4.70;2.25;;;11.30;99.90;;;;;;12407082;28;20062;-40
2023/04/14 18:15:41;;;;;;;4.50;2.20;;;11.20;99.90;;;;;;12394758;28;20047;-40
2023/04/14 18:21:43;;;;;;;4.63;2.40;;;11.10;99.90;;;;;;12389313;28;20046;-40
2023/04/14 18:27:45;;;;;;;5.72;2.45;;;10.90;99.90;;;;;;12364287;28;20049;-40
2023/04/14 18:33:50;;;;;;;6.28;2.58;;;10.70;99.90;;;;;;12371881;28;20046;-40
2023/04/14 18:39:52;;;;;;;5.32;2.47;;;10.70;99.90;;;;;;12381443;28;20054;-40
2023/04/14 18:45:54;;;;;;;6.15;2.72;;;10.50;99.90;;;;;;12391631;28;20091;-40
2023/04/14 18:51:56;;;;;;;6.78;3.17;;;10.50;99.90;;;;;;12384298;28;20047;-39
2023/04/14 18:57:58;;;;;;;5.63;3.63;;;10.50;99.90;;;;;;12381859;28;20049;-40
2023/04/14 19:04:00;;;;;;;4.80;3.00;;;10.50;99.90;;;;;;12396446;28;20116;-42
2023/04/14 19:10:03;;;;;;;4.70;2.95;;;10.40;99.90;;;;;;12386364;28;20050;-40
2023/04/14 19:16:12;;;;;;;5.88;3.15;;;10.30;99.90;;;;;;12394332;28;20054;-40
2023/04/14 19:22:14;;;;;;;4.93;3.00;;;10.20;99.90;;;;;;12363564;28;20058;-40
2023/04/14 19:28:17;;;;;;;5.60;3.38;;;10.10;99.90;;;;;;12357003;28;20100;-40
2023/04/14 19:34:18;;;;;;;15.23;11.02;;;10.00;99.90;;;;;;12369662;28;20061;-41
2023/04/14 19:40:20;;;;;;;13.40;10.30;;;10.00;99.90;;;;;;12400088;28;20177;-41
2023/04/14 19:46:22;;;;;;;28.80;23.67;;;9.90;99.90;;;;;;12385483;28;20096;-40
2023/04/14 19:52:25;;;;;;;7.43;4.22;;;9.80;99.90;;;;;;12384731;28;20047;-40
2023/04/14 19:58:27;;;;;;;9.70;4.03;;;9.60;99.90;;;;;;12378787;28;20049;-41
2023/04/14 20:04:29;;;;;;;9.15;4.20;;;9.50;99.90;;;;;;12382270;28;20129;-40
2023/04/14 20:10:31;;;;;;;9.02;4.20;;;9.20;99.90;;;;;;12370564;28;20057;-40
2023/04/14 20:16:33;;;;;;;7.90;4.75;;;9.00;99.90;;;;;;12373636;28;20804;-40
2023/04/14 20:22:35;;;;;;;7.63;4.93;;;9.00;99.90;;;;;;12400365;28;20056;-41
2023/04/14 20:28:38;;;;;;;7.78;3.97;;;8.90;99.90;;;;;;12378513;28;20047;-40
2023/04/14 20:34:40;;;;;;;7.07;3.70;;;8.90;99.90;;;;;;12380498;28;20070;-40
2023/04/14 20:40:42;;;;;;;4.70;3.20;;;9.00;99.90;;;;;;12390273;28;20068;-40
2023/04/14 20:46:44;;;;;;;4.18;2.80;;;8.90;99.90;;;;;;12390014;28;20425;-40
2023/04/14 20:52:46;;;;;;;4.43;3.05;;;9.00;99.90;;;;;;12384071;28;20047;-39
2023/04/14 20:58:48;;;;;;;6.88;3.13;;;8.90;99.90;;;;;;12384554;28;20047;-40
2023/04/14 21:04:50;;;;;;;4.82;3.05;;;8.80;99.90;;;;;;12386029;28;20569;-40
2023/04/14 21:10:52;;;;;;;5.55;3.55;;;9.00;99.90;;;;;;12413078;28;20042;-40
2023/04/14 21:17:13;;;;;;;5.75;3.22;;;9.10;99.90;;;;;;12391178;28;20054;-41
2023/04/14 21:23:15;;;;;;;6.13;4.50;;;8.70;99.90;;;;;;12387948;28;20042;-40
2023/04/14 21:29:17;;;;;;;6.88;4.20;;;8.40;99.90;;;;;;12392498;28;20058;-40
2023/04/14 21:35:19;;;;;;;7.00;3.80;;;8.20;99.90;;;;;;12387200;28;20157;-40
2023/04/14 21:41:20;;;;;;;6.78;4.13;;;8.00;99.90;;;;;;12385047;28;20046;-40
2023/04/14 21:47:22;;;;;;;6.20;4.38;;;7.90;99.90;;;;;;12389436;28;20481;-39
2023/04/14 21:53:25;;;;;;;8.93;4.00;;;8.00;99.90;;;;;;12388738;28;20054;-40
2023/04/14 21:59:27;;;;;;;9.38;3.70;;;7.90;99.90;;;;;;12374945;28;20200;-40
2023/04/14 22:05:29;;;;;;;6.43;4.50;;;7.90;99.90;;;;;;12380881;28;20054;-40
2023/04/14 22:11:31;;;;;;;5.72;3.83;;;7.70;99.90;;;;;;12371204;28;20738;-40
2023/04/14 22:17:34;;;;;;;6.75;4.20;;;7.60;99.90;;;;;;12353995;28;20058;-40
2023/04/14 22:23:38;;;;;;;7.57;4.38;;;7.50;99.90;;;;;;12389195;28;20396;-39
2023/04/14 22:29:40;;;;;;;7.22;4.30;;;7.30;99.90;;;;;;12379327;28;20103;-40
2023/04/14 22:35:42;;;;;;;7.20;4.00;;;7.30;99.90;;;;;;12380147;28;20050;-40
2023/04/14 22:41:48;;;;;;;7.43;4.90;;;7.30;99.90;;;;;;12375789;28;20180;-40
2023/04/14 22:47:50;;;;;;;8.60;5.70;;;7.20;99.90;;;;;;12380874;28;20050;-40
2023/04/14 22:53:52;;;;;;;7.20;4.60;;;7.20;99.90;;;;;;12373962;28;20054;-40
2023/04/14 22:59:53;;;;;;;6.57;4.32;;;7.20;99.90;;;;;;12393070;28;20053;-40
2023/04/14 23:05:55;;;;;;;6.72;4.75;;;7.20;99.90;;;;;;12397113;28;20034;-40
2023/04/14 23:11:57;;;;;;;6.47;4.45;;;7.20;99.90;;;;;;12393342;28;20042;-40
2023/04/14 23:18:00;;;;;;;6.43;4.63;;;7.20;99.90;;;;;;12388691;28;20483;-40
2023/04/14 23:24:02;;;;;;;7.07;4.18;;;7.30;99.90;;;;;;12388249;28;20498;-39
2023/04/14 23:30:04;;;;;;;10.25;4.68;;;7.60;99.90;;;;;;12390364;28;20169;-40
2023/04/14 23:36:06;;;;;;;7.78;4.53;;;7.60;99.90;;;;;;12359250;28;20050;-40
2023/04/14 23:42:09;;;;;;;7.53;4.28;;;7.40;99.90;;;;;;12381201;28;20472;-42
2023/04/14 23:48:11;;;;;;;6.15;4.53;;;7.40;99.90;;;;;;12382862;28;20039;-39
2023/04/14 23:54:12;;;;;;;7.28;5.03;;;7.50;99.90;;;;;;12400104;28;20038;-40
